VKG654 ESMS-LPPT
Flight info
| Callsign | VKG654 |
|---|---|
| Flight time | 3h 36m |
| Altitude | 36000 |
| Route | DISGO DCT DEMIR N872 PAM/N0449F350 N872 MEDIL DCT CMB DCT KIHVI UN872 TERPO/N0447F370 UN872 ERIGA UZ218 FUJTI DCT DELOG DCT NUBLO DCT ARDID DCT INBOM |
| Aircraft | A321/M-SDE3FGHIRWY/LB1 |
Departure
| Time | 2026-04-24 05:44 |
|---|---|
| Airport | Malmö Sturup Airport (ESMS) |
Arrival
| Time | 2026-04-24 09:20 |
|---|---|
| Airport | Lisbon Humberto Delgado Airport (LPPT) |
| Time | Latitude | Longitude | Altitude | Speed | Heading |
|---|---|---|---|---|---|
| 2026-04-24 05:07 | 55.54097 | 13.36765 | 231 ft | 0 kts | 173° |
| 2026-04-24 05:33 | 55.54107 | 13.36763 | 231 ft | 3 kts | 173° |
| 2026-04-24 05:34 | 55.54146 | 13.36754 | 234 ft | 3 kts | 159° |
| 2026-04-24 05:34 | 55.54158 | 13.36741 | 234 ft | 3 kts | 105° |
| 2026-04-24 05:34 | 55.54159 | 13.36721 | 232 ft | 1 kts | 83° |
| 2026-04-24 05:34 | 55.54157 | 13.36691 | 232 ft | 3 kts | 83° |
| 2026-04-24 05:35 | 55.54156 | 13.36676 | 231 ft | 0 kts | 83° |
| 2026-04-24 05:37 | 55.54157 | 13.36691 | 232 ft | 5 kts | 83° |
| 2026-04-24 05:37 | 55.54164 | 13.36802 | 232 ft | 11 kts | 85° |
| 2026-04-24 05:37 | 55.54171 | 13.36920 | 231 ft | 9 kts | 83° |
| 2026-04-24 05:37 | 55.54178 | 13.37020 | 231 ft | 8 kts | 80° |
| 2026-04-24 05:38 | 55.54191 | 13.37100 | 231 ft | 6 kts | 71° |
| 2026-04-24 05:38 | 55.54193 | 13.37156 | 231 ft | 4 kts | 120° |
| 2026-04-24 05:38 | 55.54145 | 13.37220 | 231 ft | 14 kts | 166° |
| 2026-04-24 05:38 | 55.54031 | 13.37248 | 231 ft | 17 kts | 172° |
| 2026-04-24 05:39 | 55.53919 | 13.37267 | 232 ft | 16 kts | 173° |
| 2026-04-24 05:39 | 55.53816 | 13.37290 | 231 ft | 15 kts | 172° |
| 2026-04-24 05:39 | 55.53720 | 13.37313 | 231 ft | 13 kts | 174° |
| 2026-04-24 05:39 | 55.53624 | 13.37329 | 231 ft | 16 kts | 174° |
| 2026-04-24 05:40 | 55.53481 | 13.37357 | 231 ft | 23 kts | 173° |
| 2026-04-24 05:40 | 55.53328 | 13.37391 | 234 ft | 22 kts | 172° |
| 2026-04-24 05:40 | 55.53182 | 13.37425 | 232 ft | 21 kts | 174° |
| 2026-04-24 05:40 | 55.53043 | 13.37448 | 232 ft | 20 kts | 173° |
| 2026-04-24 05:41 | 55.52912 | 13.37479 | 234 ft | 18 kts | 173° |
| 2026-04-24 05:41 | 55.52787 | 13.37504 | 231 ft | 18 kts | 174° |
| 2026-04-24 05:41 | 55.52669 | 13.37522 | 231 ft | 17 kts | 176° |
| 2026-04-24 05:41 | 55.52558 | 13.37539 | 231 ft | 16 kts | 174° |
| 2026-04-24 05:42 | 55.52458 | 13.37581 | 231 ft | 14 kts | 153° |
| 2026-04-24 05:42 | 55.52381 | 13.37667 | 232 ft | 12 kts | 144° |
| 2026-04-24 05:42 | 55.52325 | 13.37756 | 233 ft | 9 kts | 121° |
| 2026-04-24 05:42 | 55.52319 | 13.37815 | 236 ft | 1 kts | 89° |
| 2026-04-24 05:43 | 55.52328 | 13.37869 | 238 ft | 11 kts | 55° |
| 2026-04-24 05:43 | 55.52362 | 13.37880 | 238 ft | 4 kts | 353° |
| 2026-04-24 05:43 | 55.52590 | 13.37831 | 238 ft | 70 kts | 352° |
| 2026-04-24 05:43 | 55.53298 | 13.37688 | 240 ft | 132 kts | 354° |
| 2026-04-24 05:44 | 55.54359 | 13.37472 | 373 ft | 167 kts | 348° |
| 2026-04-24 05:44 | 55.55533 | 13.37195 | 923 ft | 173 kts | 351° |
| 2026-04-24 05:44 | 55.56719 | 13.36946 | 1667 ft | 170 kts | 352° |
| 2026-04-24 05:44 | 55.57909 | 13.36709 | 2224 ft | 178 kts | 352° |
| 2026-04-24 05:45 | 55.59143 | 13.36081 | 2402 ft | 196 kts | 324° |
| 2026-04-24 05:45 | 55.59862 | 13.34001 | 2711 ft | 210 kts | 282° |
| 2026-04-24 05:45 | 55.59689 | 13.31395 | 3251 ft | 218 kts | 261° |
| 2026-04-24 05:45 | 55.59330 | 13.28797 | 3997 ft | 217 kts | 261° |
| 2026-04-24 05:46 | 55.58962 | 13.26192 | 4688 ft | 220 kts | 262° |
| 2026-04-24 05:46 | 55.58584 | 13.23551 | 5345 ft | 224 kts | 259° |
| 2026-04-24 05:46 | 55.57807 | 13.21198 | 5937 ft | 239 kts | 228° |
| 2026-04-24 05:46 | 55.56306 | 13.19719 | 6360 ft | 265 kts | 193° |
| 2026-04-24 05:47 | 55.54378 | 13.19490 | 6584 ft | 290 kts | 182° |
| 2026-04-24 05:47 | 55.52312 | 13.19503 | 7081 ft | 301 kts | 180° |
| 2026-04-24 05:47 | 55.50207 | 13.19561 | 7741 ft | 305 kts | 180° |
| 2026-04-24 05:47 | 55.48071 | 13.19620 | 8434 ft | 309 kts | 180° |
| 2026-04-24 05:48 | 55.45911 | 13.19662 | 9108 ft | 312 kts | 181° |
| 2026-04-24 05:48 | 55.43724 | 13.19685 | 9775 ft | 316 kts | 181° |
| 2026-04-24 05:48 | 55.41527 | 13.19697 | 10245 ft | 327 kts | 181° |
| 2026-04-24 05:48 | 55.39181 | 13.19698 | 10374 ft | 348 kts | 181° |
| 2026-04-24 05:49 | 55.36687 | 13.19695 | 10500 ft | 368 kts | 181° |
| 2026-04-24 05:49 | 55.34076 | 13.19693 | 10787 ft | 380 kts | 181° |
| 2026-04-24 05:49 | 55.31412 | 13.19663 | 11310 ft | 385 kts | 185° |
| 2026-04-24 05:49 | 55.28838 | 13.18575 | 11829 ft | 381 kts | 210° |
| 2026-04-24 05:50 | 55.26593 | 13.16122 | 12411 ft | 380 kts | 218° |
| 2026-04-24 05:50 | 55.24401 | 13.13510 | 13013 ft | 383 kts | 218° |
| 2026-04-24 05:50 | 55.22188 | 13.10870 | 13590 ft | 386 kts | 218° |
| 2026-04-24 05:50 | 55.19993 | 13.08250 | 14135 ft | 389 kts | 218° |
| 2026-04-24 05:51 | 55.17836 | 13.05415 | 14612 ft | 386 kts | 229° |
| 2026-04-24 05:51 | 55.16339 | 13.01625 | 15070 ft | 376 kts | 253° |
| 2026-04-24 05:51 | 55.15810 | 12.97215 | 15534 ft | 369 kts | 272° |
| 2026-04-24 05:51 | 55.15824 | 12.92739 | 16015 ft | 370 kts | 274° |
| 2026-04-24 05:52 | 55.15781 | 12.88226 | 16492 ft | 373 kts | 272° |
| 2026-04-24 05:52 | 55.15653 | 12.83674 | 16965 ft | 376 kts | 270° |
| 2026-04-24 05:52 | 55.15470 | 12.79088 | 17426 ft | 379 kts | 270° |
| 2026-04-24 05:52 | 55.15263 | 12.74484 | 17871 ft | 382 kts | 269° |
| 2026-04-24 05:53 | 55.14853 | 12.69856 | 18294 ft | 387 kts | 264° |
| 2026-04-24 05:53 | 55.14383 | 12.65290 | 18657 ft | 389 kts | 264° |
| 2026-04-24 05:53 | 55.13916 | 12.60626 | 19023 ft | 390 kts | 264° |
| 2026-04-24 05:53 | 55.13454 | 12.55944 | 19383 ft | 392 kts | 264° |
| 2026-04-24 05:54 | 55.12992 | 12.51236 | 19740 ft | 394 kts | 264° |
| 2026-04-24 05:54 | 55.12527 | 12.46507 | 20090 ft | 395 kts | 264° |
| 2026-04-24 05:54 | 55.12061 | 12.41769 | 20450 ft | 397 kts | 264° |
| 2026-04-24 05:54 | 55.11591 | 12.37010 | 20799 ft | 399 kts | 263° |
| 2026-04-24 05:55 | 55.11114 | 12.32228 | 21164 ft | 401 kts | 263° |
| 2026-04-24 05:55 | 55.10638 | 12.27488 | 21527 ft | 403 kts | 263° |
| 2026-04-24 05:55 | 55.10150 | 12.22666 | 21907 ft | 404 kts | 263° |
| 2026-04-24 05:55 | 55.09659 | 12.17820 | 22288 ft | 406 kts | 263° |
| 2026-04-24 05:56 | 55.09164 | 12.12954 | 22659 ft | 408 kts | 263° |
| 2026-04-24 05:56 | 55.08662 | 12.08058 | 23034 ft | 410 kts | 263° |
| 2026-04-24 05:56 | 55.08155 | 12.03151 | 23423 ft | 412 kts | 262° |
| 2026-04-24 05:56 | 55.07645 | 11.98218 | 23779 ft | 414 kts | 262° |
| 2026-04-24 05:57 | 55.07131 | 11.93263 | 24094 ft | 416 kts | 262° |
| 2026-04-24 05:57 | 55.06614 | 11.88286 | 24404 ft | 417 kts | 262° |
| 2026-04-24 05:57 | 55.06101 | 11.83365 | 24732 ft | 419 kts | 262° |
| 2026-04-24 05:57 | 55.05578 | 11.78364 | 25037 ft | 420 kts | 262° |
| 2026-04-24 05:58 | 55.05050 | 11.73348 | 25350 ft | 421 kts | 262° |
| 2026-04-24 05:58 | 55.04518 | 11.68312 | 25659 ft | 423 kts | 262° |
| 2026-04-24 05:58 | 55.03982 | 11.63271 | 25974 ft | 424 kts | 262° |
| 2026-04-24 05:58 | 55.03440 | 11.58207 | 26276 ft | 425 kts | 262° |
| 2026-04-24 05:59 | 55.02898 | 11.53138 | 26581 ft | 426 kts | 262° |
| 2026-04-24 05:59 | 55.02352 | 11.48048 | 26881 ft | 428 kts | 262° |
| 2026-04-24 05:59 | 55.01810 | 11.43019 | 27186 ft | 429 kts | 262° |
| 2026-04-24 05:59 | 55.01257 | 11.37906 | 27484 ft | 430 kts | 262° |
| 2026-04-24 06:00 | 55.00698 | 11.32774 | 27769 ft | 432 kts | 262° |
| 2026-04-24 06:00 | 55.00135 | 11.27635 | 28046 ft | 433 kts | 261° |
| 2026-04-24 06:00 | 54.99568 | 11.22485 | 28324 ft | 434 kts | 261° |
| 2026-04-24 06:00 | 54.98998 | 11.17319 | 28583 ft | 435 kts | 261° |
| 2026-04-24 06:01 | 54.98426 | 11.12140 | 28829 ft | 436 kts | 261° |
| 2026-04-24 06:01 | 54.97851 | 11.06955 | 29043 ft | 437 kts | 261° |
| 2026-04-24 06:01 | 54.97278 | 11.01821 | 29269 ft | 438 kts | 261° |
| 2026-04-24 06:01 | 54.96695 | 10.96621 | 29475 ft | 439 kts | 261° |
| 2026-04-24 06:02 | 54.96107 | 10.91420 | 29715 ft | 438 kts | 261° |
| 2026-04-24 06:02 | 54.95519 | 10.86222 | 30003 ft | 437 kts | 261° |
| 2026-04-24 06:02 | 54.94934 | 10.81038 | 30308 ft | 435 kts | 261° |
| 2026-04-24 06:02 | 54.94354 | 10.75921 | 30550 ft | 434 kts | 261° |
| 2026-04-24 06:03 | 54.93767 | 10.70776 | 30809 ft | 433 kts | 261° |
| 2026-04-24 06:03 | 54.93181 | 10.65661 | 31063 ft | 431 kts | 261° |
| 2026-04-24 06:03 | 54.92791 | 10.62276 | 31236 ft | 430 kts | 261° |
| 2026-04-24 06:03 | 54.92011 | 10.55541 | 31593 ft | 428 kts | 261° |
| 2026-04-24 06:04 | 54.91419 | 10.50471 | 31854 ft | 427 kts | 261° |
| 2026-04-24 06:04 | 54.90826 | 10.45432 | 32123 ft | 426 kts | 261° |
| 2026-04-24 06:04 | 54.90233 | 10.40392 | 32377 ft | 424 kts | 261° |
| 2026-04-24 06:04 | 54.89647 | 10.35374 | 32632 ft | 423 kts | 261° |
| 2026-04-24 06:05 | 54.89260 | 10.32057 | 32808 ft | 422 kts | 261° |
| 2026-04-24 06:05 | 54.88677 | 10.27076 | 33079 ft | 421 kts | 261° |
| 2026-04-24 06:05 | 54.88089 | 10.22102 | 33335 ft | 420 kts | 261° |
| 2026-04-24 06:05 | 54.87303 | 10.15529 | 33673 ft | 419 kts | 261° |
| 2026-04-24 06:06 | 54.86708 | 10.10591 | 33924 ft | 418 kts | 260° |
| 2026-04-24 06:06 | 54.86304 | 10.07262 | 34097 ft | 417 kts | 260° |
| 2026-04-24 06:06 | 54.85714 | 10.02412 | 34318 ft | 416 kts | 260° |
| 2026-04-24 06:06 | 54.85118 | 9.97511 | 34516 ft | 415 kts | 260° |
| 2026-04-24 06:07 | 54.84526 | 9.92617 | 34704 ft | 414 kts | 260° |
| 2026-04-24 06:07 | 54.83813 | 9.87772 | 34885 ft | 416 kts | 253° |
| 2026-04-24 06:07 | 54.82651 | 9.83165 | 35068 ft | 419 kts | 244° |
| 2026-04-24 06:07 | 54.81058 | 9.78919 | 35232 ft | 422 kts | 238° |
| 2026-04-24 06:08 | 54.79353 | 9.74777 | 35392 ft | 422 kts | 238° |
| 2026-04-24 06:08 | 54.77654 | 9.70641 | 35573 ft | 421 kts | 238° |
| 2026-04-24 06:08 | 54.75980 | 9.66562 | 35746 ft | 421 kts | 238° |
| 2026-04-24 06:08 | 54.74266 | 9.62384 | 35922 ft | 420 kts | 238° |
| 2026-04-24 06:09 | 54.72595 | 9.58326 | 36094 ft | 420 kts | 238° |
| 2026-04-24 06:09 | 54.70896 | 9.54211 | 36161 ft | 419 kts | 238° |
| 2026-04-24 06:09 | 54.67510 | 9.46048 | 36162 ft | 417 kts | 238° |
| 2026-04-24 06:10 | 54.64130 | 9.37907 | 36162 ft | 417 kts | 238° |
| 2026-04-24 06:11 | 54.59080 | 9.25780 | 36163 ft | 416 kts | 237° |
| 2026-04-24 06:11 | 54.57936 | 9.23043 | 36172 ft | 416 kts | 237° |
| 2026-04-24 06:12 | 54.55725 | 9.18295 | 36159 ft | 416 kts | 235° |
| 2026-04-24 06:13 | 54.52308 | 9.10237 | 36162 ft | 416 kts | 239° |
| 2026-04-24 06:13 | 54.49067 | 9.02071 | 36169 ft | 416 kts | 238° |
| 2026-04-24 06:14 | 54.45733 | 8.93945 | 36181 ft | 416 kts | 237° |
| 2026-04-24 06:14 | 54.42313 | 8.85909 | 36188 ft | 416 kts | 237° |
| 2026-04-24 06:15 | 54.38883 | 8.77901 | 36192 ft | 416 kts | 237° |
| 2026-04-24 06:15 | 54.35482 | 8.69953 | 36197 ft | 416 kts | 236° |
| 2026-04-24 06:16 | 54.32057 | 8.61967 | 36206 ft | 416 kts | 236° |
| 2026-04-24 06:16 | 54.28643 | 8.53988 | 36207 ft | 415 kts | 236° |
| 2026-04-24 06:17 | 54.25221 | 8.46029 | 36217 ft | 415 kts | 236° |
| 2026-04-24 06:17 | 54.21886 | 8.38812 | 36215 ft | 417 kts | 228° |
| 2026-04-24 06:18 | 54.17679 | 8.31964 | 36217 ft | 418 kts | 226° |
| 2026-04-24 06:18 | 54.13456 | 8.25141 | 36216 ft | 418 kts | 226° |
| 2026-04-24 06:19 | 54.09226 | 8.18327 | 36233 ft | 418 kts | 226° |
| 2026-04-24 06:19 | 54.05036 | 8.11577 | 36240 ft | 418 kts | 226° |
| 2026-04-24 06:20 | 54.00813 | 8.04773 | 36245 ft | 418 kts | 226° |
| 2026-04-24 06:20 | 53.96583 | 7.97993 | 36248 ft | 418 kts | 226° |
| 2026-04-24 06:21 | 53.92349 | 7.91216 | 36249 ft | 418 kts | 226° |
| 2026-04-24 06:21 | 53.88136 | 7.84506 | 36255 ft | 418 kts | 225° |
| 2026-04-24 06:22 | 53.83889 | 7.77763 | 36261 ft | 418 kts | 225° |
| 2026-04-24 06:22 | 53.79641 | 7.71025 | 36268 ft | 418 kts | 225° |
| 2026-04-24 06:23 | 53.75389 | 7.64312 | 36272 ft | 418 kts | 225° |
| 2026-04-24 06:23 | 53.71166 | 7.57663 | 36278 ft | 418 kts | 225° |
| 2026-04-24 06:24 | 53.66911 | 7.50977 | 36276 ft | 418 kts | 225° |
| 2026-04-24 06:24 | 53.62649 | 7.44300 | 36278 ft | 418 kts | 225° |
| 2026-04-24 06:25 | 53.58388 | 7.37651 | 36275 ft | 418 kts | 225° |
| 2026-04-24 06:25 | 53.54151 | 7.31051 | 36299 ft | 418 kts | 224° |
| 2026-04-24 06:26 | 53.49887 | 7.24419 | 36304 ft | 418 kts | 224° |
| 2026-04-24 06:26 | 53.45615 | 7.17798 | 36308 ft | 418 kts | 224° |
| 2026-04-24 06:27 | 53.41334 | 7.11211 | 36309 ft | 418 kts | 224° |
| 2026-04-24 06:27 | 53.37052 | 7.04631 | 36308 ft | 417 kts | 224° |
| 2026-04-24 06:28 | 53.32891 | 6.97968 | 36303 ft | 416 kts | 230° |
| 2026-04-24 06:28 | 53.29090 | 6.90672 | 36300 ft | 416 kts | 229° |
| 2026-04-24 06:29 | 53.25270 | 6.83405 | 36303 ft | 416 kts | 229° |
| 2026-04-24 06:29 | 53.21453 | 6.76159 | 36307 ft | 416 kts | 229° |
| 2026-04-24 06:30 | 53.17647 | 6.68992 | 36307 ft | 415 kts | 229° |
| 2026-04-24 06:30 | 53.13837 | 6.61755 | 36307 ft | 415 kts | 230° |
| 2026-04-24 06:31 | 53.10103 | 6.54418 | 36307 ft | 415 kts | 230° |
| 2026-04-24 06:31 | 53.06379 | 6.47075 | 36307 ft | 415 kts | 230° |
| 2026-04-24 06:32 | 53.02656 | 6.39830 | 36306 ft | 415 kts | 229° |
| 2026-04-24 06:32 | 52.98893 | 6.32559 | 36305 ft | 415 kts | 229° |
| 2026-04-24 06:33 | 52.95130 | 6.25311 | 36308 ft | 415 kts | 229° |
| 2026-04-24 06:33 | 52.91368 | 6.18052 | 36310 ft | 415 kts | 229° |
| 2026-04-24 06:34 | 52.87631 | 6.10861 | 36309 ft | 415 kts | 229° |
| 2026-04-24 06:34 | 52.83857 | 6.03644 | 36313 ft | 415 kts | 229° |
| 2026-04-24 06:35 | 52.80078 | 5.96440 | 36315 ft | 415 kts | 229° |
| 2026-04-24 06:35 | 52.76300 | 5.89243 | 36315 ft | 415 kts | 228° |
| 2026-04-24 06:36 | 52.72541 | 5.82109 | 36323 ft | 415 kts | 228° |
| 2026-04-24 06:36 | 52.68751 | 5.74943 | 36327 ft | 414 kts | 228° |
| 2026-04-24 06:37 | 52.64956 | 5.67794 | 36330 ft | 414 kts | 228° |
| 2026-04-24 06:37 | 52.61159 | 5.60666 | 36332 ft | 414 kts | 228° |
| 2026-04-24 06:38 | 52.57388 | 5.53592 | 36336 ft | 414 kts | 227° |
| 2026-04-24 06:38 | 52.53588 | 5.46490 | 36335 ft | 414 kts | 227° |
| 2026-04-24 06:39 | 52.49779 | 5.39398 | 36334 ft | 414 kts | 227° |
| 2026-04-24 06:39 | 52.45981 | 5.32347 | 36329 ft | 413 kts | 227° |
| 2026-04-24 06:40 | 52.42201 | 5.25327 | 36327 ft | 413 kts | 227° |
| 2026-04-24 06:40 | 52.38390 | 5.18278 | 36327 ft | 413 kts | 227° |
| 2026-04-24 06:41 | 52.34511 | 5.11350 | 36346 ft | 412 kts | 221° |
| 2026-04-24 06:41 | 52.29742 | 5.06240 | 36349 ft | 410 kts | 206° |
| 2026-04-24 06:42 | 52.24640 | 5.02201 | 36345 ft | 411 kts | 206° |
| 2026-04-24 06:42 | 52.19502 | 4.98106 | 36345 ft | 411 kts | 206° |
| 2026-04-24 06:43 | 52.14361 | 4.94017 | 36350 ft | 411 kts | 206° |
| 2026-04-24 06:43 | 52.09213 | 4.89946 | 36353 ft | 411 kts | 206° |
| 2026-04-24 06:44 | 52.04298 | 4.86074 | 36347 ft | 411 kts | 205° |
| 2026-04-24 06:44 | 51.99142 | 4.82028 | 36354 ft | 411 kts | 205° |
| 2026-04-24 06:45 | 51.93989 | 4.77992 | 36354 ft | 411 kts | 205° |
| 2026-04-24 06:45 | 51.88837 | 4.73958 | 36356 ft | 411 kts | 205° |
| 2026-04-24 06:46 | 51.83718 | 4.69956 | 36355 ft | 411 kts | 205° |
| 2026-04-24 06:46 | 51.78568 | 4.65936 | 36355 ft | 411 kts | 205° |
| 2026-04-24 06:47 | 51.73418 | 4.61918 | 36360 ft | 411 kts | 205° |
| 2026-04-24 06:47 | 51.68263 | 4.57922 | 36358 ft | 411 kts | 205° |
| 2026-04-24 06:48 | 51.63105 | 4.53936 | 36357 ft | 411 kts | 205° |
| 2026-04-24 06:48 | 51.57982 | 4.49993 | 36363 ft | 411 kts | 205° |
| 2026-04-24 06:49 | 51.52823 | 4.46029 | 36367 ft | 411 kts | 205° |
| 2026-04-24 06:49 | 51.47673 | 4.42084 | 36366 ft | 410 kts | 205° |
| 2026-04-24 06:50 | 51.42517 | 4.38139 | 36366 ft | 410 kts | 205° |
| 2026-04-24 06:50 | 51.37398 | 4.34248 | 36363 ft | 410 kts | 205° |
| 2026-04-24 06:51 | 51.32239 | 4.30333 | 36359 ft | 410 kts | 205° |
| 2026-04-24 06:51 | 51.27087 | 4.26418 | 36363 ft | 410 kts | 205° |
| 2026-04-24 06:52 | 51.21931 | 4.22512 | 36367 ft | 410 kts | 204° |
| 2026-04-24 06:52 | 51.16803 | 4.18655 | 36362 ft | 410 kts | 202° |
| 2026-04-24 06:53 | 51.11437 | 4.15610 | 36356 ft | 410 kts | 198° |
| 2026-04-24 06:53 | 51.06051 | 4.12661 | 36349 ft | 410 kts | 199° |
| 2026-04-24 06:54 | 51.00661 | 4.09710 | 36349 ft | 410 kts | 198° |
| 2026-04-24 06:54 | 50.95305 | 4.06787 | 36346 ft | 410 kts | 198° |
| 2026-04-24 06:55 | 50.89912 | 4.03847 | 36341 ft | 410 kts | 198° |
| 2026-04-24 06:55 | 50.84550 | 4.00782 | 36338 ft | 410 kts | 201° |
| 2026-04-24 06:56 | 50.79271 | 3.97357 | 36333 ft | 410 kts | 202° |
| 2026-04-24 06:56 | 50.74041 | 3.93896 | 36327 ft | 410 kts | 201° |
| 2026-04-24 06:57 | 50.68758 | 3.90488 | 36323 ft | 410 kts | 201° |
| 2026-04-24 06:57 | 50.63459 | 3.87127 | 36320 ft | 410 kts | 201° |
| 2026-04-24 06:58 | 50.58161 | 3.83770 | 36316 ft | 411 kts | 201° |
| 2026-04-24 06:58 | 50.52921 | 3.80330 | 36306 ft | 411 kts | 202° |
| 2026-04-24 06:59 | 50.47688 | 3.76712 | 36307 ft | 411 kts | 202° |
| 2026-04-24 06:59 | 50.42449 | 3.73102 | 36307 ft | 411 kts | 202° |
| 2026-04-24 07:00 | 50.37361 | 3.69002 | 36304 ft | 414 kts | 215° |
| 2026-04-24 07:00 | 50.35242 | 3.66036 | 36307 ft | 416 kts | 226° |
| 2026-04-24 07:00 | 50.33499 | 3.62400 | 36306 ft | 420 kts | 236° |
| 2026-04-24 07:00 | 50.32226 | 3.58257 | 36301 ft | 425 kts | 247° |
| 2026-04-24 07:01 | 50.31281 | 3.53866 | 36305 ft | 426 kts | 248° |
| 2026-04-24 07:01 | 50.29386 | 3.45078 | 36307 ft | 427 kts | 248° |
| 2026-04-24 07:02 | 50.27468 | 3.36288 | 36310 ft | 427 kts | 247° |
| 2026-04-24 07:02 | 50.25553 | 3.27554 | 36316 ft | 428 kts | 247° |
| 2026-04-24 07:03 | 50.23170 | 3.19130 | 36319 ft | 421 kts | 233° |
| 2026-04-24 07:03 | 50.19225 | 3.12537 | 36312 ft | 414 kts | 214° |
| 2026-04-24 07:04 | 50.14256 | 3.08068 | 36307 ft | 413 kts | 206° |
| 2026-04-24 07:04 | 50.09218 | 3.03889 | 36305 ft | 414 kts | 206° |
| 2026-04-24 07:05 | 50.04139 | 2.99668 | 36302 ft | 414 kts | 206° |
| 2026-04-24 07:05 | 49.99044 | 2.95462 | 36298 ft | 415 kts | 206° |
| 2026-04-24 07:06 | 49.93971 | 2.91298 | 36297 ft | 415 kts | 206° |
| 2026-04-24 07:06 | 49.88856 | 2.87109 | 36295 ft | 416 kts | 206° |
| 2026-04-24 07:07 | 49.83728 | 2.82907 | 36295 ft | 417 kts | 206° |
| 2026-04-24 07:07 | 49.76020 | 2.76616 | 36301 ft | 418 kts | 206° |
| 2026-04-24 07:08 | 49.70865 | 2.72421 | 36303 ft | 419 kts | 206° |
| 2026-04-24 07:08 | 49.65744 | 2.68256 | 36302 ft | 419 kts | 206° |
| 2026-04-24 07:09 | 49.60570 | 2.64064 | 36295 ft | 420 kts | 206° |
| 2026-04-24 07:09 | 49.55389 | 2.59883 | 36292 ft | 420 kts | 206° |
| 2026-04-24 07:10 | 49.50204 | 2.55713 | 36297 ft | 421 kts | 206° |
| 2026-04-24 07:10 | 49.45043 | 2.51563 | 36291 ft | 422 kts | 206° |
| 2026-04-24 07:11 | 49.39839 | 2.47386 | 36289 ft | 422 kts | 206° |
| 2026-04-24 07:11 | 49.34624 | 2.43224 | 36284 ft | 423 kts | 206° |
| 2026-04-24 07:12 | 49.30378 | 2.39838 | 36279 ft | 424 kts | 206° |
| 2026-04-24 07:12 | 49.26275 | 2.36606 | 36273 ft | 424 kts | 206° |
| 2026-04-24 07:13 | 49.21264 | 2.31828 | 36261 ft | 428 kts | 220° |
| 2026-04-24 07:13 | 49.17471 | 2.24820 | 36258 ft | 432 kts | 239° |
| 2026-04-24 07:14 | 49.14526 | 2.16809 | 36257 ft | 434 kts | 239° |
| 2026-04-24 07:14 | 49.11619 | 2.08975 | 36257 ft | 434 kts | 239° |
| 2026-04-24 07:15 | 49.08776 | 2.00839 | 36259 ft | 436 kts | 244° |
| 2026-04-24 07:15 | 49.06256 | 1.92428 | 36262 ft | 437 kts | 244° |
| 2026-04-24 07:16 | 49.03730 | 1.84005 | 36260 ft | 437 kts | 244° |
| 2026-04-24 07:16 | 49.01201 | 1.75625 | 36258 ft | 438 kts | 244° |
| 2026-04-24 07:17 | 48.98646 | 1.67202 | 36257 ft | 439 kts | 245° |
| 2026-04-24 07:17 | 48.96077 | 1.58763 | 36257 ft | 439 kts | 245° |
| 2026-04-24 07:18 | 48.93497 | 1.50322 | 36255 ft | 440 kts | 245° |
| 2026-04-24 07:18 | 48.90967 | 1.42069 | 36255 ft | 441 kts | 245° |
| 2026-04-24 07:19 | 48.88581 | 1.34314 | 36256 ft | 442 kts | 245° |
| 2026-04-24 07:19 | 48.85969 | 1.25853 | 36258 ft | 442 kts | 245° |
| 2026-04-24 07:20 | 48.83352 | 1.17385 | 36258 ft | 443 kts | 245° |
| 2026-04-24 07:20 | 48.80731 | 1.08939 | 36262 ft | 443 kts | 245° |
| 2026-04-24 07:21 | 48.78116 | 1.00544 | 36259 ft | 443 kts | 245° |
| 2026-04-24 07:21 | 48.75483 | 0.92114 | 36258 ft | 443 kts | 246° |
| 2026-04-24 07:22 | 48.72479 | 0.83969 | 36253 ft | 443 kts | 239° |
| 2026-04-24 07:22 | 48.69250 | 0.76013 | 36256 ft | 444 kts | 239° |
| 2026-04-24 07:23 | 48.66044 | 0.68107 | 36260 ft | 444 kts | 239° |
| 2026-04-24 07:23 | 48.62810 | 0.60155 | 36258 ft | 444 kts | 239° |
| 2026-04-24 07:24 | 48.59577 | 0.52225 | 36258 ft | 443 kts | 239° |
| 2026-04-24 07:24 | 48.56336 | 0.44306 | 36257 ft | 443 kts | 239° |
| 2026-04-24 07:25 | 48.53110 | 0.36458 | 36254 ft | 443 kts | 239° |
| 2026-04-24 07:25 | 48.49861 | 0.28567 | 36257 ft | 443 kts | 239° |
| 2026-04-24 07:26 | 48.46612 | 0.20697 | 36253 ft | 442 kts | 239° |
| 2026-04-24 07:26 | 48.43356 | 0.12837 | 36256 ft | 442 kts | 239° |
| 2026-04-24 07:27 | 48.40124 | 0.05055 | 36251 ft | 441 kts | 239° |
| 2026-04-24 07:27 | 48.36871 | -0.02759 | 36247 ft | 441 kts | 239° |
| 2026-04-24 07:28 | 48.33432 | -0.10379 | 36247 ft | 441 kts | 235° |
| 2026-04-24 07:28 | 48.29712 | -0.17699 | 36245 ft | 440 kts | 233° |
| 2026-04-24 07:29 | 48.25994 | -0.24929 | 36238 ft | 440 kts | 234° |
| 2026-04-24 07:29 | 48.22287 | -0.32227 | 36229 ft | 440 kts | 234° |
| 2026-04-24 07:30 | 48.18571 | -0.39522 | 36218 ft | 440 kts | 234° |
| 2026-04-24 07:30 | 48.14849 | -0.46780 | 36217 ft | 439 kts | 234° |
| 2026-04-24 07:31 | 48.11150 | -0.53981 | 36209 ft | 439 kts | 234° |
| 2026-04-24 07:31 | 48.07431 | -0.61219 | 36205 ft | 439 kts | 234° |
| 2026-04-24 07:32 | 48.03705 | -0.68438 | 36203 ft | 438 kts | 233° |
| 2026-04-24 07:32 | 47.99971 | -0.75643 | 36202 ft | 438 kts | 233° |
| 2026-04-24 07:33 | 47.96264 | -0.82785 | 36204 ft | 438 kts | 233° |
| 2026-04-24 07:33 | 47.92530 | -0.89964 | 36201 ft | 438 kts | 233° |
| 2026-04-24 07:34 | 47.88795 | -0.97127 | 36200 ft | 438 kts | 233° |
| 2026-04-24 07:34 | 47.85052 | -1.04273 | 36200 ft | 437 kts | 233° |
| 2026-04-24 07:35 | 47.81336 | -1.11354 | 36196 ft | 437 kts | 233° |
| 2026-04-24 07:35 | 47.77594 | -1.18468 | 36197 ft | 436 kts | 233° |
| 2026-04-24 07:36 | 47.73850 | -1.25574 | 36191 ft | 436 kts | 233° |
| 2026-04-24 07:36 | 47.70130 | -1.32604 | 36191 ft | 436 kts | 233° |
| 2026-04-24 07:37 | 47.66389 | -1.39661 | 36188 ft | 435 kts | 233° |
| 2026-04-24 07:37 | 47.62649 | -1.46709 | 36183 ft | 434 kts | 233° |
| 2026-04-24 07:38 | 47.58884 | -1.53709 | 36177 ft | 435 kts | 231° |
| 2026-04-24 07:38 | 47.54885 | -1.60422 | 36172 ft | 434 kts | 229° |
| 2026-04-24 07:39 | 47.50805 | -1.66929 | 36170 ft | 434 kts | 228° |
| 2026-04-24 07:39 | 47.46723 | -1.73510 | 36167 ft | 434 kts | 229° |
| 2026-04-24 07:40 | 47.42680 | -1.80122 | 36158 ft | 434 kts | 229° |
| 2026-04-24 07:40 | 47.38673 | -1.86696 | 36151 ft | 433 kts | 229° |
| 2026-04-24 07:41 | 47.34454 | -1.93021 | 36147 ft | 434 kts | 219° |
| 2026-04-24 07:41 | 47.29374 | -1.97817 | 36143 ft | 434 kts | 212° |
| 2026-04-24 07:42 | 47.24211 | -2.02431 | 36137 ft | 434 kts | 212° |
| 2026-04-24 07:42 | 47.19090 | -2.07013 | 36140 ft | 434 kts | 212° |
| 2026-04-24 07:43 | 47.13937 | -2.11603 | 36142 ft | 433 kts | 212° |
| 2026-04-24 07:43 | 47.08781 | -2.16188 | 36148 ft | 433 kts | 212° |
| 2026-04-24 07:44 | 47.03624 | -2.20755 | 36142 ft | 433 kts | 211° |
| 2026-04-24 07:44 | 46.98504 | -2.25280 | 36150 ft | 432 kts | 211° |
| 2026-04-24 07:45 | 46.93352 | -2.29833 | 36144 ft | 432 kts | 211° |
| 2026-04-24 07:45 | 46.88206 | -2.34368 | 36138 ft | 432 kts | 211° |
| 2026-04-24 07:46 | 46.83060 | -2.38885 | 36137 ft | 431 kts | 211° |
| 2026-04-24 07:46 | 46.77951 | -2.43359 | 36139 ft | 431 kts | 211° |
| 2026-04-24 07:47 | 46.72807 | -2.47865 | 36138 ft | 431 kts | 211° |
| 2026-04-24 07:47 | 46.67660 | -2.52366 | 36137 ft | 431 kts | 211° |
| 2026-04-24 07:48 | 46.62510 | -2.56853 | 36139 ft | 432 kts | 211° |
| 2026-04-24 07:48 | 46.57396 | -2.61307 | 36142 ft | 431 kts | 211° |
| 2026-04-24 07:49 | 46.52249 | -2.65779 | 36138 ft | 431 kts | 210° |
| 2026-04-24 07:49 | 46.47097 | -2.70235 | 36132 ft | 431 kts | 210° |
| 2026-04-24 07:50 | 46.41986 | -2.74644 | 36130 ft | 430 kts | 210° |
| 2026-04-24 07:50 | 46.36844 | -2.79074 | 36128 ft | 430 kts | 210° |
| 2026-04-24 07:51 | 46.31707 | -2.83493 | 36122 ft | 429 kts | 210° |
| 2026-04-24 07:51 | 46.26550 | -2.87837 | 36114 ft | 429 kts | 205° |
| 2026-04-24 07:52 | 46.21093 | -2.91147 | 36118 ft | 428 kts | 201° |
| 2026-04-24 07:52 | 46.15578 | -2.94399 | 36111 ft | 428 kts | 201° |
| 2026-04-24 07:53 | 46.10065 | -2.97673 | 36106 ft | 428 kts | 202° |
| 2026-04-24 07:53 | 46.04548 | -3.00934 | 36108 ft | 429 kts | 201° |
| 2026-04-24 07:54 | 45.99067 | -3.04156 | 36110 ft | 429 kts | 201° |
| 2026-04-24 07:54 | 45.93545 | -3.07401 | 36105 ft | 429 kts | 201° |
| 2026-04-24 07:55 | 45.88024 | -3.10637 | 36104 ft | 428 kts | 201° |
| 2026-04-24 07:55 | 45.82506 | -3.13862 | 36099 ft | 429 kts | 201° |
| 2026-04-24 07:56 | 45.77018 | -3.17069 | 36097 ft | 429 kts | 201° |
| 2026-04-24 07:56 | 45.71498 | -3.20274 | 36098 ft | 429 kts | 201° |
| 2026-04-24 07:57 | 45.65971 | -3.23482 | 36093 ft | 429 kts | 201° |
| 2026-04-24 07:57 | 45.60441 | -3.26683 | 36086 ft | 429 kts | 201° |
| 2026-04-24 07:58 | 45.54909 | -3.29870 | 36084 ft | 429 kts | 201° |
| 2026-04-24 07:58 | 45.49422 | -3.33041 | 36085 ft | 429 kts | 201° |
| 2026-04-24 07:59 | 45.43895 | -3.36230 | 36085 ft | 429 kts | 201° |
| 2026-04-24 07:59 | 45.38362 | -3.39405 | 36086 ft | 428 kts | 201° |
| 2026-04-24 08:00 | 45.32837 | -3.42575 | 36085 ft | 428 kts | 201° |
| 2026-04-24 08:00 | 45.27347 | -3.45720 | 36088 ft | 428 kts | 201° |
| 2026-04-24 08:01 | 45.21819 | -3.48880 | 36083 ft | 428 kts | 200° |
| 2026-04-24 08:01 | 45.16288 | -3.52025 | 36082 ft | 428 kts | 200° |
| 2026-04-24 08:02 | 45.10762 | -3.55175 | 36082 ft | 428 kts | 200° |
| 2026-04-24 08:02 | 45.05279 | -3.58289 | 36075 ft | 428 kts | 200° |
| 2026-04-24 08:03 | 44.99752 | -3.61421 | 36073 ft | 428 kts | 200° |
| 2026-04-24 08:03 | 44.94224 | -3.64545 | 36070 ft | 428 kts | 200° |
| 2026-04-24 08:04 | 44.88696 | -3.67654 | 36070 ft | 428 kts | 200° |
| 2026-04-24 08:04 | 44.83208 | -3.70738 | 36073 ft | 428 kts | 200° |
| 2026-04-24 08:05 | 44.77686 | -3.73845 | 36074 ft | 427 kts | 200° |
| 2026-04-24 08:05 | 44.72159 | -3.76940 | 36073 ft | 427 kts | 200° |
| 2026-04-24 08:06 | 44.66630 | -3.80014 | 36076 ft | 427 kts | 200° |
| 2026-04-24 08:06 | 44.61147 | -3.83070 | 36082 ft | 427 kts | 200° |
| 2026-04-24 08:07 | 44.55633 | -3.86142 | 36083 ft | 426 kts | 200° |
| 2026-04-24 08:07 | 44.50119 | -3.89208 | 36088 ft | 426 kts | 200° |
| 2026-04-24 08:08 | 44.44612 | -3.92261 | 36089 ft | 425 kts | 200° |
| 2026-04-24 08:09 | 44.36404 | -3.96817 | 36088 ft | 424 kts | 200° |
| 2026-04-24 08:09 | 44.30929 | -3.99873 | 36087 ft | 424 kts | 201° |
| 2026-04-24 08:10 | 44.25531 | -4.03181 | 36085 ft | 423 kts | 203° |
| 2026-04-24 08:10 | 44.20173 | -4.06584 | 36083 ft | 423 kts | 203° |
| 2026-04-24 08:11 | 44.14843 | -4.09920 | 36085 ft | 422 kts | 202° |
| 2026-04-24 08:11 | 44.09472 | -4.13229 | 36085 ft | 422 kts | 202° |
| 2026-04-24 08:12 | 44.04106 | -4.16522 | 36084 ft | 422 kts | 202° |
| 2026-04-24 08:12 | 43.98739 | -4.19807 | 36079 ft | 421 kts | 202° |
| 2026-04-24 08:13 | 43.93411 | -4.23065 | 36075 ft | 421 kts | 202° |
| 2026-04-24 08:13 | 43.88051 | -4.26349 | 36076 ft | 421 kts | 202° |
| 2026-04-24 08:14 | 43.82695 | -4.29624 | 36076 ft | 421 kts | 202° |
| 2026-04-24 08:14 | 43.77334 | -4.32882 | 36072 ft | 421 kts | 202° |
| 2026-04-24 08:15 | 43.72009 | -4.36118 | 36073 ft | 421 kts | 202° |
| 2026-04-24 08:15 | 43.66652 | -4.39369 | 36077 ft | 421 kts | 202° |
| 2026-04-24 08:16 | 43.61288 | -4.42608 | 36082 ft | 420 kts | 202° |
| 2026-04-24 08:16 | 43.55930 | -4.45841 | 36089 ft | 420 kts | 202° |
| 2026-04-24 08:17 | 43.50575 | -4.49079 | 36089 ft | 420 kts | 202° |
| 2026-04-24 08:17 | 43.45248 | -4.52279 | 36096 ft | 420 kts | 202° |
| 2026-04-24 08:18 | 43.39889 | -4.55486 | 36100 ft | 420 kts | 202° |
| 2026-04-24 08:18 | 43.34535 | -4.58697 | 36100 ft | 419 kts | 202° |
| 2026-04-24 08:19 | 43.29186 | -4.61901 | 36105 ft | 419 kts | 202° |
| 2026-04-24 08:19 | 43.23883 | -4.65073 | 36105 ft | 419 kts | 202° |
| 2026-04-24 08:20 | 43.18543 | -4.68247 | 36110 ft | 418 kts | 201° |
| 2026-04-24 08:20 | 43.13217 | -4.71407 | 36116 ft | 417 kts | 201° |
| 2026-04-24 08:21 | 43.07899 | -4.74571 | 36118 ft | 416 kts | 201° |
| 2026-04-24 08:21 | 43.02623 | -4.77696 | 36123 ft | 416 kts | 201° |
| 2026-04-24 08:22 | 42.97319 | -4.80831 | 36131 ft | 415 kts | 201° |
| 2026-04-24 08:22 | 42.92019 | -4.83963 | 36120 ft | 415 kts | 201° |
| 2026-04-24 08:23 | 42.86723 | -4.87090 | 36133 ft | 415 kts | 201° |
| 2026-04-24 08:23 | 42.81422 | -4.90204 | 36140 ft | 414 kts | 201° |
| 2026-04-24 08:24 | 42.76167 | -4.93277 | 36137 ft | 414 kts | 201° |
| 2026-04-24 08:24 | 42.70880 | -4.96381 | 36142 ft | 414 kts | 201° |
| 2026-04-24 08:25 | 42.65674 | -4.99719 | 36130 ft | 416 kts | 210° |
| 2026-04-24 08:25 | 42.60826 | -5.04034 | 36132 ft | 417 kts | 210° |
| 2026-04-24 08:26 | 42.56007 | -5.08315 | 36148 ft | 417 kts | 210° |
| 2026-04-24 08:26 | 42.51156 | -5.12612 | 36151 ft | 416 kts | 210° |
| 2026-04-24 08:27 | 42.46304 | -5.16904 | 36147 ft | 416 kts | 210° |
| 2026-04-24 08:27 | 42.41454 | -5.21189 | 36141 ft | 416 kts | 210° |
| 2026-04-24 08:28 | 42.36631 | -5.25440 | 36143 ft | 416 kts | 210° |
| 2026-04-24 08:28 | 42.31782 | -5.29713 | 36144 ft | 416 kts | 210° |
| 2026-04-24 08:29 | 42.26929 | -5.33980 | 36151 ft | 416 kts | 210° |
| 2026-04-24 08:29 | 42.22078 | -5.38237 | 36145 ft | 416 kts | 210° |
| 2026-04-24 08:30 | 42.17256 | -5.42461 | 36146 ft | 416 kts | 210° |
| 2026-04-24 08:30 | 42.12398 | -5.46700 | 36143 ft | 416 kts | 210° |
| 2026-04-24 08:31 | 42.07537 | -5.50932 | 36155 ft | 416 kts | 210° |
| 2026-04-24 08:31 | 42.02674 | -5.55166 | 36148 ft | 416 kts | 210° |
| 2026-04-24 08:32 | 41.97806 | -5.59401 | 36149 ft | 416 kts | 210° |
| 2026-04-24 08:32 | 41.92978 | -5.63595 | 36153 ft | 416 kts | 210° |
| 2026-04-24 08:33 | 41.88112 | -5.67801 | 36148 ft | 416 kts | 209° |
| 2026-04-24 08:33 | 41.83246 | -5.72002 | 36154 ft | 416 kts | 209° |
| 2026-04-24 08:34 | 41.78374 | -5.76203 | 36152 ft | 416 kts | 209° |
| 2026-04-24 08:34 | 41.73535 | -5.80382 | 36149 ft | 417 kts | 209° |
| 2026-04-24 08:35 | 41.68654 | -5.84578 | 36150 ft | 417 kts | 209° |
| 2026-04-24 08:35 | 41.63768 | -5.88771 | 36150 ft | 417 kts | 209° |
| 2026-04-24 08:36 | 41.58878 | -5.92962 | 36145 ft | 417 kts | 209° |
| 2026-04-24 08:36 | 41.54017 | -5.97106 | 36146 ft | 418 kts | 209° |
| 2026-04-24 08:37 | 41.49116 | -6.01282 | 36142 ft | 418 kts | 209° |
| 2026-04-24 08:37 | 41.44215 | -6.05456 | 36143 ft | 418 kts | 209° |
| 2026-04-24 08:38 | 41.39310 | -6.09621 | 36141 ft | 418 kts | 209° |
| 2026-04-24 08:38 | 41.34405 | -6.13779 | 36143 ft | 418 kts | 209° |
| 2026-04-24 08:39 | 41.29528 | -6.17906 | 36144 ft | 418 kts | 209° |
| 2026-04-24 08:39 | 41.24626 | -6.22058 | 36144 ft | 418 kts | 209° |
| 2026-04-24 08:40 | 41.19723 | -6.26210 | 36143 ft | 418 kts | 211° |
| 2026-04-24 08:40 | 41.15463 | -6.31517 | 36141 ft | 427 kts | 229° |
| 2026-04-24 08:41 | 41.11943 | -6.37809 | 36136 ft | 428 kts | 229° |
| 2026-04-24 08:41 | 41.08383 | -6.44125 | 36138 ft | 427 kts | 229° |
| 2026-04-24 08:42 | 41.04823 | -6.50426 | 36135 ft | 427 kts | 229° |
| 2026-04-24 08:42 | 41.01260 | -6.56721 | 36131 ft | 427 kts | 229° |
| 2026-04-24 08:43 | 40.97725 | -6.62957 | 36134 ft | 426 kts | 229° |
| 2026-04-24 08:43 | 40.94157 | -6.69236 | 36131 ft | 426 kts | 229° |
| 2026-04-24 08:44 | 40.90593 | -6.75502 | 36130 ft | 426 kts | 229° |
| 2026-04-24 08:44 | 40.87021 | -6.81754 | 36129 ft | 426 kts | 229° |
| 2026-04-24 08:45 | 40.83470 | -6.87949 | 36132 ft | 426 kts | 229° |
| 2026-04-24 08:45 | 40.79897 | -6.94198 | 36125 ft | 426 kts | 229° |
| 2026-04-24 08:46 | 40.76314 | -7.00449 | 36130 ft | 427 kts | 229° |
| 2026-04-24 08:46 | 40.72222 | -7.05991 | 36120 ft | 421 kts | 219° |
| 2026-04-24 08:47 | 40.67956 | -7.11208 | 36122 ft | 422 kts | 219° |
| 2026-04-24 08:47 | 40.63644 | -7.16465 | 36124 ft | 422 kts | 219° |
| 2026-04-24 08:48 | 40.59336 | -7.21726 | 36129 ft | 423 kts | 219° |
| 2026-04-24 08:48 | 40.55024 | -7.26982 | 36131 ft | 423 kts | 219° |
| 2026-04-24 08:49 | 40.50735 | -7.32198 | 36133 ft | 423 kts | 219° |
| 2026-04-24 08:49 | 40.46408 | -7.37446 | 36139 ft | 423 kts | 219° |
| 2026-04-24 08:50 | 40.42083 | -7.42690 | 36137 ft | 424 kts | 219° |
| 2026-04-24 08:50 | 40.37755 | -7.47929 | 36140 ft | 424 kts | 219° |
| 2026-04-24 08:51 | 40.33443 | -7.53129 | 36136 ft | 424 kts | 219° |
| 2026-04-24 08:51 | 40.29105 | -7.58356 | 36141 ft | 424 kts | 219° |
| 2026-04-24 08:52 | 40.24761 | -7.63575 | 36144 ft | 424 kts | 219° |
| 2026-04-24 08:52 | 40.20416 | -7.68793 | 36142 ft | 424 kts | 219° |
| 2026-04-24 08:53 | 40.16062 | -7.74013 | 36143 ft | 424 kts | 219° |
| 2026-04-24 08:53 | 40.11739 | -7.79184 | 36146 ft | 425 kts | 219° |
| 2026-04-24 08:54 | 40.07375 | -7.84393 | 36143 ft | 425 kts | 219° |
| 2026-04-24 08:54 | 40.03013 | -7.89605 | 36144 ft | 425 kts | 219° |
| 2026-04-24 08:55 | 39.98641 | -7.94810 | 36145 ft | 425 kts | 219° |
| 2026-04-24 08:55 | 39.94302 | -7.99980 | 36141 ft | 426 kts | 219° |
| 2026-04-24 08:56 | 39.89916 | -8.05174 | 36146 ft | 426 kts | 219° |
| 2026-04-24 08:56 | 39.85527 | -8.10359 | 36147 ft | 426 kts | 219° |
| 2026-04-24 08:57 | 39.81164 | -8.15516 | 36145 ft | 427 kts | 220° |
| 2026-04-24 08:57 | 39.76770 | -8.20710 | 36145 ft | 427 kts | 219° |
| 2026-04-24 08:58 | 39.72362 | -8.25891 | 36147 ft | 427 kts | 220° |
| 2026-04-24 08:58 | 39.67949 | -8.31069 | 35806 ft | 427 kts | 219° |
| 2026-04-24 08:58 | 39.65747 | -8.33649 | 35217 ft | 428 kts | 219° |
| 2026-04-24 08:59 | 39.63531 | -8.36238 | 34424 ft | 430 kts | 219° |
| 2026-04-24 08:59 | 39.61302 | -8.38846 | 33490 ft | 433 kts | 219° |
| 2026-04-24 08:59 | 39.59351 | -8.41128 | 32760 ft | 434 kts | 219° |
| 2026-04-24 09:00 | 39.58547 | -8.42076 | 32453 ft | 434 kts | 219° |
| 2026-04-24 09:01 | 39.58219 | -8.42462 | 32326 ft | 434 kts | 219° |
| 2026-04-24 09:01 | 39.57301 | -8.43544 | 31946 ft | 435 kts | 219° |
| 2026-04-24 09:01 | 39.54329 | -8.47021 | 30796 ft | 437 kts | 219° |
| 2026-04-24 09:01 | 39.49712 | -8.52423 | 29516 ft | 419 kts | 224° |
| 2026-04-24 09:02 | 39.47543 | -8.56336 | 28315 ft | 422 kts | 229° |
| 2026-04-24 09:02 | 39.44614 | -8.59721 | 27346 ft | 406 kts | 213° |
| 2026-04-24 09:02 | 39.40559 | -8.63331 | 27001 ft | 379 kts | 212° |
| 2026-04-24 09:02 | 39.35391 | -8.68443 | 25793 ft | 377 kts | 218° |
| 2026-04-24 09:03 | 39.30656 | -8.73047 | 24677 ft | 371 kts | 216° |
| 2026-04-24 09:03 | 39.27062 | -8.77274 | 23734 ft | 369 kts | 224° |
| 2026-04-24 09:03 | 39.25321 | -8.79700 | 23232 ft | 368 kts | 226° |
| 2026-04-24 09:03 | 39.23599 | -8.82134 | 22787 ft | 366 kts | 225° |
| 2026-04-24 09:04 | 39.21865 | -8.84454 | 22345 ft | 363 kts | 224° |
| 2026-04-24 09:04 | 39.20052 | -8.86716 | 21928 ft | 362 kts | 222° |
| 2026-04-24 09:04 | 39.18202 | -8.88894 | 21463 ft | 359 kts | 221° |
| 2026-04-24 09:04 | 39.16326 | -8.91020 | 21030 ft | 358 kts | 219° |
| 2026-04-24 09:05 | 39.14306 | -8.92883 | 20405 ft | 357 kts | 213° |
| 2026-04-24 09:05 | 39.12240 | -8.94632 | 19992 ft | 353 kts | 213° |
| 2026-04-24 09:05 | 39.10164 | -8.96370 | 19120 ft | 361 kts | 213° |
| 2026-04-24 09:05 | 39.08007 | -8.98170 | 18176 ft | 377 kts | 213° |
| 2026-04-24 09:06 | 39.05781 | -9.00029 | 17104 ft | 384 kts | 213° |
| 2026-04-24 09:06 | 39.03538 | -9.01905 | 16381 ft | 382 kts | 213° |
| 2026-04-24 09:06 | 39.01367 | -9.03724 | 15915 ft | 374 kts | 213° |
| 2026-04-24 09:06 | 38.99203 | -9.05538 | 15340 ft | 370 kts | 213° |
| 2026-04-24 09:07 | 38.97056 | -9.07340 | 14744 ft | 367 kts | 213° |
| 2026-04-24 09:07 | 38.94926 | -9.09128 | 14153 ft | 364 kts | 213° |
| 2026-04-24 09:07 | 38.90710 | -9.12662 | 12923 ft | 359 kts | 213° |
| 2026-04-24 09:08 | 38.89325 | -9.13822 | 12521 ft | 358 kts | 213° |
| 2026-04-24 09:08 | 38.87248 | -9.15558 | 11919 ft | 355 kts | 213° |
| 2026-04-24 09:08 | 38.85190 | -9.17277 | 11334 ft | 352 kts | 213° |
| 2026-04-24 09:08 | 38.82481 | -9.19541 | 10563 ft | 349 kts | 213° |
| 2026-04-24 09:09 | 38.80457 | -9.21229 | 10213 ft | 348 kts | 213° |
| 2026-04-24 09:09 | 38.78421 | -9.22929 | 10088 ft | 349 kts | 213° |
| 2026-04-24 09:09 | 38.76386 | -9.24627 | 10109 ft | 350 kts | 213° |
| 2026-04-24 09:09 | 38.75035 | -9.25752 | 10138 ft | 350 kts | 213° |
| 2026-04-24 09:10 | 38.72990 | -9.27449 | 10139 ft | 350 kts | 213° |
| 2026-04-24 09:10 | 38.70948 | -9.29145 | 10138 ft | 350 kts | 213° |
| 2026-04-24 09:10 | 38.68907 | -9.30841 | 10138 ft | 350 kts | 213° |
| 2026-04-24 09:10 | 38.66236 | -9.33072 | 10136 ft | 345 kts | 213° |
| 2026-04-24 09:11 | 38.64264 | -9.34643 | 10133 ft | 324 kts | 212° |
| 2026-04-24 09:11 | 38.62991 | -9.35642 | 10135 ft | 310 kts | 212° |
| 2026-04-24 09:11 | 38.61226 | -9.37024 | 10136 ft | 296 kts | 212° |
| 2026-04-24 09:11 | 38.59479 | -9.38392 | 10139 ft | 293 kts | 212° |
| 2026-04-24 09:12 | 38.57741 | -9.39753 | 10138 ft | 293 kts | 212° |
| 2026-04-24 09:12 | 38.56010 | -9.41111 | 9778 ft | 293 kts | 212° |
| 2026-04-24 09:12 | 38.54252 | -9.42436 | 8990 ft | 294 kts | 205° |
| 2026-04-24 09:12 | 38.52271 | -9.43014 | 8224 ft | 295 kts | 179° |
| 2026-04-24 09:13 | 38.50357 | -9.42478 | 7504 ft | 295 kts | 154° |
| 2026-04-24 09:13 | 38.48748 | -9.40893 | 6769 ft | 294 kts | 127° |
| 2026-04-24 09:13 | 38.47859 | -9.38626 | 6032 ft | 290 kts | 101° |
| 2026-04-24 09:13 | 38.47852 | -9.36102 | 5352 ft | 282 kts | 73° |
| 2026-04-24 09:14 | 38.48704 | -9.33952 | 5006 ft | 267 kts | 51° |
| 2026-04-24 09:14 | 38.49832 | -9.32094 | 4744 ft | 263 kts | 49° |
| 2026-04-24 09:14 | 38.50974 | -9.30280 | 4493 ft | 262 kts | 49° |
| 2026-04-24 09:14 | 38.52116 | -9.28476 | 4239 ft | 260 kts | 49° |
| 2026-04-24 09:15 | 38.53391 | -9.26874 | 4045 ft | 256 kts | 31° |
| 2026-04-24 09:15 | 38.54992 | -9.25911 | 4005 ft | 255 kts | 21° |
| 2026-04-24 09:15 | 38.56635 | -9.25049 | 4012 ft | 255 kts | 21° |
| 2026-04-24 09:15 | 38.58250 | -9.24194 | 4009 ft | 251 kts | 21° |
| 2026-04-24 09:16 | 38.59817 | -9.23360 | 3874 ft | 239 kts | 21° |
| 2026-04-24 09:16 | 38.61300 | -9.22571 | 3609 ft | 223 kts | 21° |
| 2026-04-24 09:16 | 38.62691 | -9.21830 | 3324 ft | 212 kts | 21° |
| 2026-04-24 09:16 | 38.64021 | -9.21123 | 3048 ft | 203 kts | 21° |
| 2026-04-24 09:17 | 38.65316 | -9.20433 | 2774 ft | 201 kts | 21° |
| 2026-04-24 09:17 | 38.66605 | -9.19747 | 2492 ft | 200 kts | 21° |
| 2026-04-24 09:17 | 38.67868 | -9.19074 | 2237 ft | 199 kts | 21° |
| 2026-04-24 09:17 | 38.69104 | -9.18415 | 1956 ft | 184 kts | 22° |
| 2026-04-24 09:18 | 38.70243 | -9.17807 | 1726 ft | 172 kts | 21° |
| 2026-04-24 09:18 | 38.71302 | -9.17242 | 1500 ft | 157 kts | 22° |
| 2026-04-24 09:18 | 38.72268 | -9.16726 | 1287 ft | 145 kts | 21° |
| 2026-04-24 09:18 | 38.73175 | -9.16242 | 1091 ft | 139 kts | 22° |
| 2026-04-24 09:19 | 38.74058 | -9.15772 | 920 ft | 136 kts | 22° |
| 2026-04-24 09:19 | 38.74926 | -9.15308 | 743 ft | 135 kts | 21° |
| 2026-04-24 09:19 | 38.75790 | -9.14846 | 561 ft | 135 kts | 21° |
| 2026-04-24 09:19 | 38.76650 | -9.14387 | 391 ft | 134 kts | 21° |
| 2026-04-24 09:20 | 38.77452 | -9.13962 | 350 ft | 109 kts | 22° |
| 2026-04-24 09:20 | 38.78122 | -9.13604 | 353 ft | 34 kts | 22° |
| 2026-04-24 09:20 | 38.78251 | -9.13499 | 349 ft | 33 kts | 39° |
| 2026-04-24 09:20 | 38.78373 | -9.13308 | 352 ft | 17 kts | 86° |
| 2026-04-24 09:21 | 38.78310 | -9.13272 | 350 ft | 13 kts | 187° |
| 2026-04-24 09:21 | 38.78220 | -9.13307 | 352 ft | 13 kts | 201° |
| 2026-04-24 09:21 | 38.78134 | -9.13351 | 356 ft | 13 kts | 202° |
| 2026-04-24 09:21 | 38.78051 | -9.13389 | 348 ft | 12 kts | 195° |
| 2026-04-24 09:22 | 38.77968 | -9.13401 | 353 ft | 12 kts | 177° |
| 2026-04-24 09:22 | 38.77891 | -9.13383 | 351 ft | 11 kts | 167° |
| 2026-04-24 09:22 | 38.77818 | -9.13362 | 347 ft | 11 kts | 167° |
| 2026-04-24 09:22 | 38.77748 | -9.13343 | 350 ft | 9 kts | 168° |
| 2026-04-24 09:23 | 38.77726 | -9.13337 | 347 ft | 11 kts | 168° |
| 2026-04-24 09:23 | 38.77621 | -9.13316 | 357 ft | 16 kts | 181° |
| 2026-04-24 09:23 | 38.77513 | -9.13304 | 351 ft | 16 kts | 168° |
| 2026-04-24 09:23 | 38.77428 | -9.13280 | 347 ft | 11 kts | 160° |
| 2026-04-24 09:24 | 38.77419 | -9.13252 | 350 ft | 2 kts | 80° |
| 2026-04-24 09:24 | 38.77426 | -9.13174 | 353 ft | 7 kts | 78° |
| 2026-04-24 09:24 | 38.77429 | -9.13145 | 347 ft | 0 kts | 81° |